createdAt,value
2024-02-14T00:00:42.469Z,7.65
2024-02-14T00:03:09.425Z,7.93
2024-02-14T00:05:36.417Z,8.13
2024-02-14T00:08:04.496Z,8.35
2024-02-14T00:10:31.183Z,8.88
2024-02-14T00:12:57.851Z,9.48
2024-02-14T00:15:26.746Z,9.50
2024-02-14T00:17:54.675Z,9.38
2024-02-14T00:20:21.447Z,9.32
2024-02-14T00:22:54.543Z,9.40
2024-02-14T00:25:21.349Z,8.88
2024-02-14T00:27:49.627Z,8.30
2024-02-14T00:30:16.520Z,6.93
2024-02-14T00:33:03.494Z,8.82
2024-02-14T00:35:30.376Z,9.02
2024-02-14T00:37:57.131Z,9.15
2024-02-14T00:40:23.892Z,9.52
2024-02-14T00:42:50.461Z,7.88
2024-02-14T00:45:17.098Z,8.68
2024-02-14T00:47:43.934Z,9.30
2024-02-14T00:50:11.113Z,8.95
2024-02-14T00:52:37.734Z,8.88
2024-02-14T00:55:04.831Z,8.65
2024-02-14T00:57:33.584Z,8.23
2024-02-14T01:00:01.141Z,9.55
2024-02-14T01:02:31.731Z,9.40
2024-02-14T01:04:58.380Z,8.63
2024-02-14T01:07:25.290Z,8.98
2024-02-14T01:09:52.658Z,9.35
2024-02-14T01:12:19.330Z,9.65
2024-02-14T01:14:46.115Z,9.45
2024-02-14T01:17:13.150Z,9.80
2024-02-14T01:19:39.943Z,9.63
2024-02-14T01:22:07.294Z,10.23
2024-02-14T01:24:35.855Z,9.60
2024-02-14T01:27:03.997Z,9.45
2024-02-14T01:29:30.762Z,10.43
2024-02-14T01:31:57.401Z,10.30
2024-02-14T01:34:25.222Z,10.80
2024-02-14T01:36:52.116Z,10.32
2024-02-14T01:39:19.657Z,10.45
2024-02-14T01:41:50.033Z,10.98
2024-02-14T01:44:17.682Z,10.30
2024-02-14T01:46:45.317Z,9.80
2024-02-14T01:49:13.386Z,11.30
2024-02-14T01:51:43.265Z,9.52
2024-02-14T01:54:10.221Z,11.30
2024-02-14T01:56:36.864Z,11.02
2024-02-14T01:59:03.751Z,11.13
2024-02-14T02:04:19.246Z,10.95
2024-02-14T02:06:45.948Z,11.18
2024-02-14T02:09:12.749Z,12.18
2024-02-14T02:11:52.704Z,11.23
2024-02-14T02:14:41.325Z,11.50
2024-02-14T02:17:28.254Z,10.75
2024-02-14T02:20:16.612Z,10.65
2024-02-14T02:22:46.365Z,12.40
2024-02-14T02:25:32.941Z,11.20
2024-02-14T02:28:15.714Z,12.30
2024-02-14T02:30:47.496Z,11.90
2024-02-14T02:33:14.915Z,12.68
2024-02-14T02:38:29.846Z,12.55
2024-02-14T02:44:03.029Z,11.60
2024-02-14T02:49:38.390Z,12.07
2024-02-14T02:52:25.542Z,12.55
2024-02-14T02:55:12.213Z,12.13
2024-02-14T02:57:47.122Z,11.95
2024-02-14T03:00:14.561Z,12.80
2024-02-14T03:02:47.753Z,12.77
2024-02-14T03:05:34.748Z,13.05
2024-02-14T03:08:17.149Z,12.25
2024-02-14T03:11:07.600Z,11.55
2024-02-14T03:13:54.878Z,10.80
2024-02-14T03:16:41.445Z,12.27
2024-02-14T03:19:08.170Z,12.45
2024-02-14T03:21:36.456Z,13.32
2024-02-14T03:24:06.554Z,11.48
2024-02-14T03:26:34.628Z,13.40
2024-02-14T03:29:01.984Z,13.85
2024-02-14T03:31:28.630Z,11.68
2024-02-14T03:33:55.450Z,12.43
2024-02-14T03:36:22.328Z,11.98
2024-02-14T03:38:48.926Z,13.00
2024-02-14T03:41:16.042Z,10.05
2024-02-14T03:43:42.840Z,11.38
2024-02-14T03:46:09.539Z,8.48
2024-02-14T03:48:36.759Z,10.98
2024-02-14T03:51:04.485Z,11.93
2024-02-14T03:53:32.590Z,11.93
2024-02-14T03:55:59.149Z,9.63
2024-02-14T03:58:25.825Z,10.43
2024-02-14T04:00:53.409Z,10.68
2024-02-14T04:03:20.208Z,11.68
2024-02-14T04:05:48.965Z,12.57
2024-02-14T04:08:15.905Z,11.65
2024-02-14T04:10:42.663Z,11.55
2024-02-14T04:13:11.018Z,12.23
2024-02-14T04:15:37.681Z,11.93
2024-02-14T04:18:10.200Z,12.27
2024-02-14T04:20:37.116Z,12.95
2024-02-14T04:23:07.115Z,12.13
2024-02-14T04:25:34.775Z,10.77
2024-02-14T04:28:01.409Z,11.95
2024-02-14T04:30:28.963Z,11.13
2024-02-14T04:33:04.294Z,10.98
2024-02-14T04:35:31.225Z,12.57
2024-02-14T04:37:58.554Z,10.07
2024-02-14T04:40:25.535Z,11.57
2024-02-14T04:42:52.664Z,8.75
2024-02-14T04:45:19.496Z,11.23
2024-02-14T04:47:55.243Z,9.85
2024-02-14T04:50:21.855Z,10.95
2024-02-14T04:52:48.485Z,10.77
2024-02-14T04:55:15.235Z,11.00
2024-02-14T04:57:41.862Z,10.52
2024-02-14T05:00:10.853Z,11.55
2024-02-14T05:02:38.878Z,11.95
2024-02-14T05:05:06.950Z,10.27
2024-02-14T05:07:35.694Z,12.15
2024-02-14T05:10:02.383Z,11.85
2024-02-14T05:12:30.881Z,10.05
2024-02-14T05:14:57.728Z,11.27
2024-02-14T05:17:24.675Z,12.30
2024-02-14T05:19:51.946Z,11.95
2024-02-14T05:22:19.414Z,11.95
2024-02-14T05:24:47.435Z,12.07
2024-02-14T05:27:14.392Z,12.45
2024-02-14T05:29:41.213Z,12.55
2024-02-14T05:32:10.715Z,12.55
2024-02-14T05:34:37.559Z,13.02
2024-02-14T05:37:06.724Z,12.20
2024-02-14T05:39:33.524Z,13.35
2024-02-14T05:42:00.654Z,13.95
2024-02-14T05:44:28.579Z,12.13
2024-02-14T05:46:55.997Z,13.80
2024-02-14T05:49:23.314Z,14.25
2024-02-14T05:51:51.153Z,14.75
2024-02-14T05:54:17.824Z,14.20
2024-02-14T05:56:44.541Z,14.38
2024-02-14T05:59:11.449Z,14.02
2024-02-14T06:01:38.288Z,12.85
2024-02-14T06:04:05.147Z,13.77
2024-02-14T06:06:31.921Z,13.82
2024-02-14T06:08:59.309Z,12.30
2024-02-14T06:11:26.200Z,13.13
2024-02-14T06:13:52.765Z,14.60
2024-02-14T06:16:19.606Z,13.40
2024-02-14T06:18:46.902Z,14.10
2024-02-14T06:21:13.813Z,13.02
2024-02-14T06:23:41.262Z,13.15
2024-02-14T06:26:08.204Z,15.18
2024-02-14T06:28:34.847Z,14.40
2024-02-14T06:31:01.980Z,15.40
2024-02-14T06:33:29.618Z,14.25
2024-02-14T06:35:56.743Z,14.23
2024-02-14T06:38:23.576Z,12.93
2024-02-14T06:40:50.589Z,13.93
2024-02-14T06:43:17.201Z,13.68
2024-02-14T06:45:44.758Z,14.15
2024-02-14T06:48:25.032Z,14.15
2024-02-14T06:50:52.378Z,13.43
2024-02-14T06:53:19.194Z,13.50
2024-02-14T06:55:47.765Z,15.35
2024-02-14T06:58:14.661Z,14.23
2024-02-14T07:00:41.460Z,15.50
2024-02-14T07:03:08.272Z,14.27
2024-02-14T07:05:37.572Z,13.45
2024-02-14T07:08:04.427Z,15.35
2024-02-14T07:10:31.356Z,15.30
2024-02-14T07:12:57.929Z,15.00
2024-02-14T07:15:27.101Z,15.88
2024-02-14T07:17:54.388Z,16.85
2024-02-14T07:20:21.499Z,15.35
2024-02-14T07:22:54.186Z,15.75
2024-02-14T07:25:21.009Z,15.88
2024-02-14T07:27:49.799Z,15.77
2024-02-14T07:30:18.055Z,14.35
2024-02-14T07:32:45.694Z,15.25
2024-02-14T07:35:14.506Z,15.63
2024-02-14T07:37:42.598Z,18.30
2024-02-14T07:40:09.460Z,17.38
2024-02-14T07:45:22.447Z,16.67
2024-02-14T07:47:51.052Z,17.00
2024-02-14T07:50:18.178Z,17.50
2024-02-14T07:52:45.247Z,18.77
2024-02-14T07:55:13.536Z,19.75
2024-02-14T07:57:40.495Z,19.73
2024-02-14T08:00:09.336Z,19.30
2024-02-14T08:02:36.181Z,19.25
2024-02-14T08:05:03.410Z,20.48
2024-02-14T08:07:31.495Z,19.45
2024-02-14T08:09:58.138Z,20.02
2024-02-14T08:12:26.784Z,19.95
2024-02-14T08:14:53.485Z,21.02
2024-02-14T08:17:20.152Z,20.20
2024-02-14T08:19:47.010Z,21.27
2024-02-14T08:22:14.603Z,18.42
2024-02-14T08:24:41.305Z,20.27
2024-02-14T08:27:08.120Z,19.63
2024-02-14T08:29:35.426Z,18.80
2024-02-14T08:32:02.080Z,19.40
2024-02-14T08:34:28.970Z,20.08
2024-02-14T08:36:57.416Z,19.75
2024-02-14T08:39:24.184Z,19.60
2024-02-14T08:41:51.700Z,19.88
2024-02-14T08:44:19.240Z,20.45
2024-02-14T08:46:49.449Z,18.85
2024-02-14T08:49:16.438Z,19.70
2024-02-14T08:51:47.214Z,18.90
2024-02-14T08:54:15.658Z,18.90
2024-02-14T08:56:42.380Z,18.00
2024-02-14T08:59:09.144Z,17.55
2024-02-14T09:01:37.873Z,18.27
2024-02-14T09:04:04.842Z,17.25
2024-02-14T09:06:33.608Z,17.45
2024-02-14T09:09:00.301Z,17.70
2024-02-14T09:11:27.177Z,18.13
2024-02-14T09:13:57.003Z,15.80
2024-02-14T09:16:24.392Z,17.13
2024-02-14T09:18:51.337Z,14.73
2024-02-14T09:21:19.083Z,16.58
2024-02-14T09:23:47.993Z,16.25
2024-02-14T09:26:14.686Z,14.80
2024-02-14T09:28:41.778Z,15.20
2024-02-14T09:31:10.953Z,15.10
2024-02-14T09:33:38.195Z,13.95
2024-02-14T09:36:05.570Z,15.38
2024-02-14T09:38:33.050Z,15.07
2024-02-14T09:41:06.873Z,14.82
2024-02-14T09:43:39.191Z,12.52
2024-02-14T09:46:05.961Z,13.50
2024-02-14T09:48:33.636Z,13.45
2024-02-14T09:51:01.013Z,13.85
2024-02-14T09:53:29.714Z,13.65
2024-02-14T09:55:56.781Z,13.25
2024-02-14T09:58:23.666Z,13.63
2024-02-14T10:00:55.271Z,13.25
2024-02-14T10:03:24.793Z,12.82
2024-02-14T10:05:51.730Z,13.30
2024-02-14T10:08:19.183Z,12.63
2024-02-14T10:10:50.967Z,13.10
2024-02-14T10:13:18.934Z,13.60
2024-02-14T10:15:46.335Z,12.07
2024-02-14T10:18:15.853Z,12.80
2024-02-14T10:20:45.919Z,11.57
2024-02-14T10:23:13.502Z,12.90
2024-02-14T10:25:40.874Z,12.80
2024-02-14T10:28:11.349Z,12.82
2024-02-14T10:30:43.480Z,12.75
2024-02-14T10:33:17.400Z,12.45
2024-02-14T10:35:53.102Z,12.07
2024-02-14T10:38:21.310Z,12.38
2024-02-14T10:40:48.464Z,12.60
2024-02-14T10:43:15.137Z,13.57
2024-02-14T10:45:41.886Z,13.18
2024-02-14T10:48:12.204Z,13.27
2024-02-14T10:50:42.473Z,14.38
2024-02-14T10:53:13.638Z,13.18
2024-02-14T10:55:41.345Z,13.93
2024-02-14T10:58:09.165Z,12.82
2024-02-14T11:00:35.793Z,13.40
2024-02-14T11:03:03.078Z,13.50
2024-02-14T11:05:31.079Z,13.85
2024-02-14T11:07:57.892Z,13.77
2024-02-14T11:10:24.865Z,13.77
2024-02-14T11:12:52.110Z,13.95
2024-02-14T11:15:20.766Z,14.57
2024-02-14T11:17:52.780Z,14.32
2024-02-14T11:20:20.642Z,14.30
2024-02-14T11:22:54.998Z,12.73
2024-02-14T11:25:23.303Z,13.82
2024-02-14T11:27:50.691Z,14.82
2024-02-14T11:30:28.458Z,14.23
2024-02-14T11:32:55.339Z,13.23
2024-02-14T11:35:22.603Z,10.57
2024-02-14T11:37:52.705Z,14.25
2024-02-14T11:40:20.571Z,12.30
2024-02-14T11:42:48.858Z,14.50
2024-02-14T11:45:16.041Z,13.30
2024-02-14T11:47:43.025Z,14.13
2024-02-14T11:50:11.199Z,13.40
2024-02-14T11:52:38.263Z,12.48
2024-02-14T11:55:05.201Z,13.98
2024-02-14T11:57:31.912Z,12.20
2024-02-14T11:59:59.016Z,13.52
2024-02-14T12:02:26.244Z,11.73
2024-02-14T12:04:55.278Z,12.35
2024-02-14T12:07:23.730Z,11.20
2024-02-14T12:09:52.016Z,12.75
2024-02-14T12:12:18.796Z,11.20
2024-02-14T12:14:46.645Z,11.75
2024-02-14T12:17:13.334Z,10.77
2024-02-14T12:19:40.149Z,10.25
2024-02-14T12:22:12.877Z,10.65
2024-02-14T12:24:39.778Z,10.07
2024-02-14T12:27:06.961Z,9.15
2024-02-14T12:29:36.139Z,9.93
2024-02-14T12:32:09.651Z,9.68
2024-02-14T12:34:38.688Z,11.05
2024-02-14T12:37:07.565Z,9.77
2024-02-14T12:39:34.229Z,10.48
2024-02-14T12:42:03.562Z,9.45
2024-02-14T12:44:31.018Z,10.45
2024-02-14T12:46:58.042Z,10.60
2024-02-14T12:49:27.290Z,11.27
2024-02-14T12:51:54.129Z,10.57
2024-02-14T12:54:21.019Z,10.90
2024-02-14T12:56:47.680Z,11.20
2024-02-14T12:59:18.843Z,11.13
2024-02-14T13:01:45.789Z,10.25
2024-02-14T13:04:13.206Z,10.07
2024-02-14T13:06:40.274Z,11.20
2024-02-14T13:09:07.252Z,9.27
2024-02-14T13:11:33.924Z,9.95
2024-02-14T13:14:00.955Z,9.38
2024-02-14T13:16:27.657Z,9.38
2024-02-14T13:18:54.570Z,9.98
2024-02-14T13:21:21.375Z,9.60
2024-02-14T13:23:48.976Z,9.43
2024-02-14T13:26:15.518Z,10.75
2024-02-14T13:28:42.152Z,10.40
2024-02-14T13:31:08.822Z,9.95
2024-02-14T13:33:35.655Z,10.18
2024-02-14T13:36:02.580Z,8.98
2024-02-14T13:38:30.167Z,10.00
2024-02-14T13:40:56.725Z,9.73
2024-02-14T13:43:23.303Z,9.98
2024-02-14T13:45:51.511Z,10.63
2024-02-14T13:48:18.591Z,9.38
2024-02-14T13:50:45.374Z,9.68
2024-02-14T13:53:12.087Z,9.45
2024-02-14T13:55:40.243Z,9.20
2024-02-14T13:58:06.994Z,10.52
2024-02-14T14:00:34.786Z,10.50
2024-02-14T14:03:01.524Z,9.65
2024-02-14T14:05:28.610Z,11.45
2024-02-14T14:07:58.913Z,9.88
2024-02-14T14:10:27.662Z,10.60
2024-02-14T14:12:54.730Z,8.60
2024-02-14T14:15:23.322Z,9.63
2024-02-14T14:17:50.458Z,9.82
2024-02-14T14:20:17.695Z,10.93
2024-02-14T14:22:44.400Z,10.95
2024-02-14T14:25:11.173Z,9.90
2024-02-14T14:27:37.783Z,9.95
2024-02-14T14:30:05.394Z,9.20
2024-02-14T14:32:32.265Z,9.55
2024-02-14T14:34:59.051Z,8.35
2024-02-14T14:37:25.694Z,8.27
2024-02-14T14:39:52.368Z,6.97
2024-02-14T14:42:19.704Z,8.15
2024-02-14T14:44:46.889Z,7.90
2024-02-14T14:47:14.366Z,6.95
2024-02-14T14:49:41.353Z,8.25
2024-02-14T14:52:08.157Z,7.47
2024-02-14T14:54:34.956Z,7.15
2024-02-14T14:57:05.226Z,7.80
2024-02-14T14:59:32.204Z,7.38
2024-02-14T15:01:59.063Z,7.82
2024-02-14T15:04:26.162Z,7.40
2024-02-14T15:06:54.146Z,7.68
2024-02-14T15:09:21.576Z,6.78
2024-02-14T15:11:48.450Z,6.78
2024-02-14T15:14:15.200Z,6.82
2024-02-14T15:16:44.941Z,7.22
2024-02-14T15:19:12.048Z,6.47
2024-02-14T15:21:39.109Z,6.72
2024-02-14T15:24:06.020Z,7.05
2024-02-14T15:26:50.727Z,7.70
2024-02-14T15:29:37.432Z,7.30
2024-02-14T15:34:50.733Z,6.32
2024-02-14T15:37:18.799Z,6.47
2024-02-14T15:39:46.041Z,7.72
2024-02-14T15:42:13.341Z,6.60
2024-02-14T15:44:40.336Z,5.70
2024-02-14T15:47:08.632Z,6.57
2024-02-14T15:49:36.679Z,6.60
2024-02-14T15:52:03.751Z,6.00
2024-02-14T15:54:30.553Z,6.45
2024-02-14T15:56:57.351Z,7.15
2024-02-14T15:59:24.028Z,7.45
2024-02-14T16:01:50.697Z,7.28
2024-02-14T16:04:17.553Z,6.63
2024-02-14T16:06:44.330Z,6.32
2024-02-14T16:09:11.731Z,6.80
2024-02-14T16:11:38.372Z,6.95
2024-02-14T16:14:05.264Z,6.40
2024-02-14T16:16:32.931Z,6.40
2024-02-14T16:19:01.231Z,5.93
2024-02-14T16:21:28.049Z,6.68
2024-02-14T16:23:54.995Z,5.93
2024-02-14T16:26:21.571Z,6.85
2024-02-14T16:28:52.232Z,6.30
2024-02-14T16:31:19.074Z,6.60
2024-02-14T16:33:45.851Z,6.38
2024-02-14T16:36:12.888Z,6.38
2024-02-14T16:38:39.895Z,5.32
2024-02-14T16:41:06.563Z,6.25
2024-02-14T16:43:33.430Z,5.47
2024-02-14T16:46:00.343Z,6.50
2024-02-14T16:48:27.262Z,6.25
2024-02-14T16:50:54.299Z,6.25
2024-02-14T16:53:20.965Z,6.22
2024-02-14T16:55:47.624Z,5.88
2024-02-14T16:58:14.321Z,5.47
2024-02-14T17:00:41.417Z,6.07
2024-02-14T17:03:15.474Z,6.65
2024-02-14T17:05:45.728Z,7.82
2024-02-14T17:08:13.256Z,8.52
2024-02-14T17:10:39.991Z,8.90
2024-02-14T17:13:06.812Z,8.85
2024-02-14T17:15:33.413Z,8.80
2024-02-14T17:18:00.192Z,8.35
2024-02-14T17:20:27.177Z,8.40
2024-02-14T17:22:53.967Z,8.20
2024-02-14T17:25:21.316Z,8.57
2024-02-14T17:27:48.568Z,7.97
2024-02-14T17:30:15.808Z,9.23
2024-02-14T17:32:49.403Z,9.13
2024-02-14T17:35:16.632Z,9.30
2024-02-14T17:37:43.358Z,9.05
2024-02-14T17:40:10.791Z,8.60
2024-02-14T17:42:37.674Z,6.72
2024-02-14T17:45:07.421Z,8.73
2024-02-14T17:47:36.221Z,7.88
2024-02-14T17:50:04.377Z,8.70
2024-02-14T17:52:31.702Z,7.97
2024-02-14T17:54:58.825Z,7.72
2024-02-14T17:57:26.065Z,8.07
2024-02-14T17:59:53.720Z,7.82
2024-02-14T18:02:21.353Z,6.75
2024-02-14T18:04:48.190Z,6.63
2024-02-14T18:07:15.537Z,6.53
2024-02-14T18:09:42.467Z,6.20
2024-02-14T18:12:09.813Z,4.68
2024-02-14T18:14:36.621Z,6.13
2024-02-14T18:17:03.447Z,5.35
2024-02-14T18:19:30.452Z,5.93
2024-02-14T18:21:58.713Z,4.88
2024-02-14T18:24:25.615Z,5.80
2024-02-14T18:26:52.358Z,5.78
2024-02-14T18:29:19.154Z,6.25
2024-02-14T18:31:45.984Z,5.28
2024-02-14T18:34:12.906Z,6.30
2024-02-14T18:36:40.017Z,5.72
2024-02-14T18:39:07.161Z,6.13
2024-02-14T18:41:36.188Z,6.38
2024-02-14T18:44:06.699Z,6.22
2024-02-14T18:46:33.702Z,7.15
2024-02-14T18:49:01.070Z,6.65
2024-02-14T18:51:28.012Z,7.38
2024-02-14T18:53:55.083Z,7.60
2024-02-14T18:56:22.066Z,6.88
2024-02-14T18:58:50.542Z,6.90
2024-02-14T19:01:27.192Z,7.30
2024-02-14T19:03:57.246Z,6.35
2024-02-14T19:06:24.351Z,5.82
2024-02-14T19:08:52.608Z,5.75
2024-02-14T19:11:20.287Z,6.28
2024-02-14T19:13:47.101Z,5.50
2024-02-14T19:16:24.265Z,5.72
2024-02-14T19:18:55.624Z,6.82
2024-02-14T19:21:22.778Z,6.88
2024-02-14T19:23:49.726Z,7.13
2024-02-14T19:26:16.907Z,7.45
2024-02-14T19:28:43.859Z,7.28
2024-02-14T19:31:11.771Z,8.07
2024-02-14T19:33:38.952Z,8.43
2024-02-14T19:36:08.690Z,7.35
2024-02-14T19:38:35.969Z,7.70
2024-02-14T19:41:02.865Z,8.27
2024-02-14T19:43:35.292Z,7.70
2024-02-14T19:46:06.510Z,8.20
2024-02-14T19:48:34.039Z,8.45
2024-02-14T19:51:03.021Z,8.68
2024-02-14T19:53:29.800Z,8.38
2024-02-14T19:55:58.562Z,8.10
2024-02-14T19:58:25.682Z,7.28
2024-02-14T20:00:52.218Z,8.35
2024-02-14T20:03:21.375Z,8.10
2024-02-14T20:05:48.971Z,6.15
2024-02-14T20:08:16.199Z,8.30
2024-02-14T20:10:43.330Z,8.48
2024-02-14T20:13:09.953Z,37.58
2024-02-14T20:15:36.580Z,12.77
2024-02-14T20:18:03.475Z,10.15
2024-02-14T20:20:30.380Z,75.40
2024-02-14T20:22:57.049Z,16.77
2024-02-14T20:25:23.818Z,17.88
2024-02-14T20:27:50.901Z,14.07
2024-02-14T20:30:20.431Z,15.27
2024-02-14T20:32:48.324Z,13.40
2024-02-14T20:35:16.158Z,10.65
2024-02-14T20:37:44.234Z,12.45
2024-02-14T20:40:14.451Z,9.55
2024-02-14T20:42:42.410Z,11.77
2024-02-14T20:45:09.455Z,12.57
2024-02-14T20:47:37.063Z,8.82
2024-02-14T20:50:04.042Z,8.88
2024-02-14T20:52:30.817Z,10.65
2024-02-14T20:54:57.528Z,8.15
2024-02-14T20:57:24.434Z,8.40
2024-02-14T20:59:51.540Z,8.38
2024-02-14T21:02:21.499Z,7.32
2024-02-14T21:04:48.462Z,8.27
2024-02-14T21:07:18.191Z,7.47
2024-02-14T21:09:44.873Z,7.10
2024-02-14T21:12:11.486Z,7.57
2024-02-14T21:14:38.358Z,6.43
2024-02-14T21:17:05.133Z,7.95
2024-02-14T21:19:32.022Z,6.82
2024-02-14T21:21:58.690Z,7.53
2024-02-14T21:24:25.690Z,7.43
2024-02-14T21:26:53.408Z,8.13
2024-02-14T21:29:20.178Z,7.80
2024-02-14T21:31:46.860Z,8.35
2024-02-14T21:34:13.750Z,8.35
2024-02-14T21:36:40.981Z,7.65
2024-02-14T21:39:08.051Z,8.98
2024-02-14T21:41:35.926Z,7.97
2024-02-14T21:44:05.104Z,8.65
2024-02-14T21:46:31.795Z,9.57
2024-02-14T21:48:58.749Z,8.23
2024-02-14T21:51:29.310Z,9.05
2024-02-14T21:53:56.063Z,8.68
2024-02-14T21:56:22.722Z,8.65
2024-02-14T21:58:49.607Z,8.45
2024-02-14T22:01:16.260Z,7.88
2024-02-14T22:03:42.912Z,7.88
2024-02-14T22:06:09.566Z,7.85
2024-02-14T22:08:36.552Z,7.72
2024-02-14T22:11:03.899Z,7.93
2024-02-14T22:13:31.936Z,8.45
2024-02-14T22:15:58.556Z,8.32
2024-02-14T22:18:26.468Z,7.53
2024-02-14T22:20:54.094Z,8.90
2024-02-14T22:23:20.703Z,7.97
2024-02-14T22:25:47.323Z,8.73
2024-02-14T22:28:14.319Z,8.10
2024-02-14T22:30:42.516Z,7.85
2024-02-14T22:33:11.238Z,7.10
2024-02-14T22:35:38.203Z,7.13
2024-02-14T22:38:09.358Z,7.43
2024-02-14T22:40:36.313Z,6.68
2024-02-14T22:43:09.822Z,6.43
2024-02-14T22:45:37.214Z,5.95
2024-02-14T22:48:04.473Z,5.90
2024-02-14T22:50:31.709Z,5.35
2024-02-14T22:52:58.804Z,5.47
2024-02-14T22:55:25.725Z,5.15
2024-02-14T22:57:52.288Z,4.57
2024-02-14T23:00:23.440Z,5.35
2024-02-14T23:02:50.882Z,4.97
2024-02-14T23:05:24.954Z,4.88
2024-02-14T23:07:51.639Z,4.30
2024-02-14T23:10:18.324Z,4.15
2024-02-14T23:12:46.023Z,4.38
2024-02-14T23:15:13.414Z,4.32
2024-02-14T23:17:40.640Z,4.93
2024-02-14T23:20:08.035Z,4.15
2024-02-14T23:22:35.999Z,4.25
2024-02-14T23:25:03.556Z,4.53
2024-02-14T23:27:30.863Z,5.18
2024-02-14T23:29:57.519Z,5.30
2024-02-14T23:32:24.229Z,5.60
2024-02-14T23:34:50.957Z,4.32
2024-02-14T23:37:17.575Z,4.85
2024-02-14T23:39:45.201Z,4.90
2024-02-14T23:42:11.919Z,4.47
2024-02-14T23:44:38.550Z,4.50
2024-02-14T23:47:05.423Z,4.97
2024-02-14T23:49:32.868Z,4.47
2024-02-14T23:51:59.567Z,5.32
2024-02-14T23:54:26.168Z,5.03
2024-02-14T23:56:53.680Z,5.13
2024-02-14T23:59:20.339Z,5.40
